sensor_id;sensor_type;location;lat;lon;timestamp;P1;durP1;ratioP1;P2;durP2;ratioP2
19621;SDS011;9958;33.196;-97.114;2023-07-13T00:00:05;5.88;;;3.13;;
19621;SDS011;9958;33.196;-97.114;2023-07-13T00:02:37;4.40;;;2.90;;
19621;SDS011;9958;33.196;-97.114;2023-07-13T00:05:06;4.88;;;2.92;;
19621;SDS011;9958;33.196;-97.114;2023-07-13T00:07:34;4.65;;;3.03;;
19621;SDS011;9958;33.196;-97.114;2023-07-13T00:10:04;6.40;;;2.67;;
19621;SDS011;9958;33.196;-97.114;2023-07-13T00:12:35;6.30;;;3.15;;
19621;SDS011;9958;33.196;-97.114;2023-07-13T00:15:06;5.28;;;3.25;;
19621;SDS011;9958;33.196;-97.114;2023-07-13T00:17:40;4.63;;;3.40;;
19621;SDS011;9958;33.196;-97.114;2023-07-13T00:20:10;4.50;;;3.25;;
19621;SDS011;9958;33.196;-97.114;2023-07-13T00:22:39;3.78;;;3.20;;
19621;SDS011;9958;33.196;-97.114;2023-07-13T00:25:07;3.92;;;3.30;;
19621;SDS011;9958;33.196;-97.114;2023-07-13T00:27:37;4.07;;;3.10;;
19621;SDS011;9958;33.196;-97.114;2023-07-13T00:30:06;4.80;;;3.42;;
19621;SDS011;9958;33.196;-97.114;2023-07-13T00:32:35;4.10;;;3.17;;
19621;SDS011;9958;33.196;-97.114;2023-07-13T00:35:06;8.10;;;3.50;;
19621;SDS011;9958;33.196;-97.114;2023-07-13T00:37:35;7.55;;;3.50;;
19621;SDS011;9958;33.196;-97.114;2023-07-13T00:40:04;6.85;;;3.65;;
19621;SDS011;9958;33.196;-97.114;2023-07-13T00:42:33;5.97;;;3.35;;
19621;SDS011;9958;33.196;-97.114;2023-07-13T00:45:03;7.75;;;3.70;;
19621;SDS011;9958;33.196;-97.114;2023-07-13T00:47:32;6.05;;;3.42;;
19621;SDS011;9958;33.196;-97.114;2023-07-13T00:50:01;6.13;;;3.55;;
19621;SDS011;9958;33.196;-97.114;2023-07-13T00:52:33;6.30;;;3.55;;
19621;SDS011;9958;33.196;-97.114;2023-07-13T00:55:02;4.40;;;3.15;;
19621;SDS011;9958;33.196;-97.114;2023-07-13T00:57:31;5.05;;;3.17;;
19621;SDS011;9958;33.196;-97.114;2023-07-13T01:00:00;5.53;;;3.85;;
19621;SDS011;9958;33.196;-97.114;2023-07-13T01:02:34;5.80;;;3.67;;
19621;SDS011;9958;33.196;-97.114;2023-07-13T01:05:08;5.38;;;3.85;;
19621;SDS011;9958;33.196;-97.114;2023-07-13T01:07:39;5.35;;;3.70;;
19621;SDS011;9958;33.196;-97.114;2023-07-13T01:10:09;6.20;;;3.47;;
19621;SDS011;9958;33.196;-97.114;2023-07-13T01:12:38;7.65;;;3.47;;
19621;SDS011;9958;33.196;-97.114;2023-07-13T01:18:04;6.65;;;3.42;;
19621;SDS011;9958;33.196;-97.114;2023-07-13T01:20:34;6.30;;;3.95;;
19621;SDS011;9958;33.196;-97.114;2023-07-13T01:23:05;6.90;;;3.95;;
19621;SDS011;9958;33.196;-97.114;2023-07-13T01:25:35;6.45;;;3.65;;
19621;SDS011;9958;33.196;-97.114;2023-07-13T01:28:05;6.00;;;3.17;;
19621;SDS011;9958;33.196;-97.114;2023-07-13T01:30:35;6.03;;;3.55;;
19621;SDS011;9958;33.196;-97.114;2023-07-13T01:33:05;5.82;;;3.45;;
19621;SDS011;9958;33.196;-97.114;2023-07-13T01:35:35;5.05;;;3.63;;
19621;SDS011;9958;33.196;-97.114;2023-07-13T01:38:05;7.03;;;3.60;;
19621;SDS011;9958;33.196;-97.114;2023-07-13T01:40:34;9.88;;;3.63;;
19621;SDS011;9958;33.196;-97.114;2023-07-13T01:43:03;4.55;;;3.72;;
19621;SDS011;9958;33.196;-97.114;2023-07-13T01:45:32;7.30;;;3.67;;
19621;SDS011;9958;33.196;-97.114;2023-07-13T01:48:01;5.47;;;4.03;;
19621;SDS011;9958;33.196;-97.114;2023-07-13T01:50:29;5.80;;;3.92;;
19621;SDS011;9958;33.196;-97.114;2023-07-13T01:52:57;7.63;;;3.75;;
19621;SDS011;9958;33.196;-97.114;2023-07-13T01:55:28;9.18;;;3.80;;
19621;SDS011;9958;33.196;-97.114;2023-07-13T01:57:57;5.70;;;3.50;;
19621;SDS011;9958;33.196;-97.114;2023-07-13T02:00:25;8.02;;;3.85;;
19621;SDS011;9958;33.196;-97.114;2023-07-13T02:02:53;8.75;;;3.50;;
19621;SDS011;9958;33.196;-97.114;2023-07-13T02:05:21;7.35;;;3.50;;
19621;SDS011;9958;33.196;-97.114;2023-07-13T02:07:50;7.68;;;4.18;;
19621;SDS011;9958;33.196;-97.114;2023-07-13T02:10:19;4.75;;;3.67;;
19621;SDS011;9958;33.196;-97.114;2023-07-13T02:12:50;4.75;;;3.42;;
19621;SDS011;9958;33.196;-97.114;2023-07-13T02:15:18;5.80;;;3.85;;
19621;SDS011;9958;33.196;-97.114;2023-07-13T02:17:46;6.90;;;4.53;;
19621;SDS011;9958;33.196;-97.114;2023-07-13T02:20:15;9.00;;;4.57;;
19621;SDS011;9958;33.196;-97.114;2023-07-13T02:22:43;5.78;;;3.67;;
19621;SDS011;9958;33.196;-97.114;2023-07-13T02:25:11;7.65;;;3.70;;
19621;SDS011;9958;33.196;-97.114;2023-07-13T02:27:40;6.43;;;3.92;;
19621;SDS011;9958;33.196;-97.114;2023-07-13T02:30:10;5.47;;;3.67;;
19621;SDS011;9958;33.196;-97.114;2023-07-13T02:32:39;8.27;;;4.18;;
19621;SDS011;9958;33.196;-97.114;2023-07-13T02:35:07;6.03;;;3.35;;
19621;SDS011;9958;33.196;-97.114;2023-07-13T02:37:36;4.78;;;3.90;;
19621;SDS011;9958;33.196;-97.114;2023-07-13T02:40:05;6.18;;;4.00;;
19621;SDS011;9958;33.196;-97.114;2023-07-13T02:42:34;4.15;;;3.63;;
19621;SDS011;9958;33.196;-97.114;2023-07-13T02:45:02;7.47;;;3.40;;
19621;SDS011;9958;33.196;-97.114;2023-07-13T02:47:33;4.78;;;3.22;;
19621;SDS011;9958;33.196;-97.114;2023-07-13T02:50:02;5.47;;;3.38;;
19621;SDS011;9958;33.196;-97.114;2023-07-13T02:52:31;6.32;;;3.78;;
19621;SDS011;9958;33.196;-97.114;2023-07-13T02:54:59;8.05;;;3.70;;
19621;SDS011;9958;33.196;-97.114;2023-07-13T02:57:27;5.68;;;3.40;;
19621;SDS011;9958;33.196;-97.114;2023-07-13T02:59:57;5.60;;;3.50;;
19621;SDS011;9958;33.196;-97.114;2023-07-13T03:02:25;6.43;;;3.60;;
19621;SDS011;9958;33.196;-97.114;2023-07-13T03:04:56;7.18;;;3.45;;
19621;SDS011;9958;33.196;-97.114;2023-07-13T03:07:24;6.90;;;3.53;;
19621;SDS011;9958;33.196;-97.114;2023-07-13T03:09:53;9.48;;;3.60;;
19621;SDS011;9958;33.196;-97.114;2023-07-13T03:12:22;4.57;;;3.60;;
19621;SDS011;9958;33.196;-97.114;2023-07-13T03:14:51;6.97;;;3.47;;
19621;SDS011;9958;33.196;-97.114;2023-07-13T03:17:19;6.55;;;3.38;;
19621;SDS011;9958;33.196;-97.114;2023-07-13T03:19:48;5.93;;;3.50;;
19621;SDS011;9958;33.196;-97.114;2023-07-13T03:22:18;5.97;;;3.33;;
19621;SDS011;9958;33.196;-97.114;2023-07-13T03:24:46;4.68;;;3.40;;
19621;SDS011;9958;33.196;-97.114;2023-07-13T03:27:15;4.32;;;3.13;;
19621;SDS011;9958;33.196;-97.114;2023-07-13T03:29:44;6.82;;;3.63;;
19621;SDS011;9958;33.196;-97.114;2023-07-13T03:32:12;9.48;;;3.72;;
19621;SDS011;9958;33.196;-97.114;2023-07-13T03:34:41;5.43;;;2.90;;
19621;SDS011;9958;33.196;-97.114;2023-07-13T03:37:09;5.18;;;3.10;;
19621;SDS011;9958;33.196;-97.114;2023-07-13T03:39:39;5.45;;;3.22;;
19621;SDS011;9958;33.196;-97.114;2023-07-13T03:42:07;5.88;;;3.30;;
19621;SDS011;9958;33.196;-97.114;2023-07-13T03:44:36;8.70;;;3.47;;
19621;SDS011;9958;33.196;-97.114;2023-07-13T03:47:04;4.97;;;3.22;;
19621;SDS011;9958;33.196;-97.114;2023-07-13T03:49:34;9.43;;;3.85;;
19621;SDS011;9958;33.196;-97.114;2023-07-13T03:52:03;8.10;;;3.33;;
19621;SDS011;9958;33.196;-97.114;2023-07-13T03:54:31;7.32;;;3.88;;
19621;SDS011;9958;33.196;-97.114;2023-07-13T03:57:01;6.22;;;3.65;;
19621;SDS011;9958;33.196;-97.114;2023-07-13T03:59:30;4.07;;;3.08;;
19621;SDS011;9958;33.196;-97.114;2023-07-13T04:01:59;7.88;;;3.00;;
19621;SDS011;9958;33.196;-97.114;2023-07-13T04:04:30;7.72;;;3.20;;
19621;SDS011;9958;33.196;-97.114;2023-07-13T04:06:59;5.70;;;3.00;;
19621;SDS011;9958;33.196;-97.114;2023-07-13T04:09:27;5.00;;;2.97;;
19621;SDS011;9958;33.196;-97.114;2023-07-13T04:11:55;6.45;;;3.05;;
19621;SDS011;9958;33.196;-97.114;2023-07-13T04:14:25;4.15;;;3.42;;
19621;SDS011;9958;33.196;-97.114;2023-07-13T04:16:54;4.22;;;3.28;;
19621;SDS011;9958;33.196;-97.114;2023-07-13T04:19:23;5.53;;;3.17;;
19621;SDS011;9958;33.196;-97.114;2023-07-13T04:21:51;4.25;;;2.72;;
19621;SDS011;9958;33.196;-97.114;2023-07-13T04:24:19;4.80;;;3.05;;
19621;SDS011;9958;33.196;-97.114;2023-07-13T04:26:48;4.97;;;2.90;;
19621;SDS011;9958;33.196;-97.114;2023-07-13T04:29:16;5.55;;;2.97;;
19621;SDS011;9958;33.196;-97.114;2023-07-13T04:31:46;6.07;;;3.25;;
19621;SDS011;9958;33.196;-97.114;2023-07-13T04:34:15;5.30;;;3.15;;
19621;SDS011;9958;33.196;-97.114;2023-07-13T04:36:43;7.60;;;3.10;;
19621;SDS011;9958;33.196;-97.114;2023-07-13T04:39:11;5.45;;;3.22;;
19621;SDS011;9958;33.196;-97.114;2023-07-13T04:41:39;4.70;;;3.05;;
19621;SDS011;9958;33.196;-97.114;2023-07-13T04:44:08;7.80;;;2.88;;
19621;SDS011;9958;33.196;-97.114;2023-07-13T04:46:36;4.55;;;2.88;;
19621;SDS011;9958;33.196;-97.114;2023-07-13T04:49:07;5.78;;;3.10;;
19621;SDS011;9958;33.196;-97.114;2023-07-13T04:51:35;5.57;;;2.97;;
19621;SDS011;9958;33.196;-97.114;2023-07-13T04:54:03;5.40;;;3.28;;
19621;SDS011;9958;33.196;-97.114;2023-07-13T04:56:33;4.45;;;3.15;;
19621;SDS011;9958;33.196;-97.114;2023-07-13T04:59:01;6.68;;;2.92;;
19621;SDS011;9958;33.196;-97.114;2023-07-13T05:01:30;4.30;;;3.05;;
19621;SDS011;9958;33.196;-97.114;2023-07-13T05:03:58;4.93;;;3.28;;
19621;SDS011;9958;33.196;-97.114;2023-07-13T05:06:28;4.97;;;3.55;;
19621;SDS011;9958;33.196;-97.114;2023-07-13T05:08:56;5.90;;;3.03;;
19621;SDS011;9958;33.196;-97.114;2023-07-13T05:11:25;5.43;;;3.20;;
19621;SDS011;9958;33.196;-97.114;2023-07-13T05:13:53;5.78;;;3.15;;
19621;SDS011;9958;33.196;-97.114;2023-07-13T05:16:21;5.43;;;3.05;;
19621;SDS011;9958;33.196;-97.114;2023-07-13T05:18:50;4.97;;;3.60;;
19621;SDS011;9958;33.196;-97.114;2023-07-13T05:21:18;5.80;;;3.33;;
19621;SDS011;9958;33.196;-97.114;2023-07-13T05:23:48;6.35;;;3.20;;
19621;SDS011;9958;33.196;-97.114;2023-07-13T05:26:16;6.63;;;3.05;;
19621;SDS011;9958;33.196;-97.114;2023-07-13T05:28:46;5.38;;;2.90;;
19621;SDS011;9958;33.196;-97.114;2023-07-13T05:31:14;7.20;;;3.05;;
19621;SDS011;9958;33.196;-97.114;2023-07-13T05:33:42;6.82;;;3.20;;
19621;SDS011;9958;33.196;-97.114;2023-07-13T05:36:11;5.78;;;3.10;;
19621;SDS011;9958;33.196;-97.114;2023-07-13T05:38:39;4.47;;;2.53;;
19621;SDS011;9958;33.196;-97.114;2023-07-13T05:41:09;7.00;;;3.20;;
19621;SDS011;9958;33.196;-97.114;2023-07-13T05:43:37;3.58;;;2.60;;
19621;SDS011;9958;33.196;-97.114;2023-07-13T05:46:05;5.97;;;3.22;;
19621;SDS011;9958;33.196;-97.114;2023-07-13T05:48:34;5.72;;;3.40;;
19621;SDS011;9958;33.196;-97.114;2023-07-13T05:51:02;6.53;;;3.55;;
19621;SDS011;9958;33.196;-97.114;2023-07-13T05:53:30;7.72;;;2.83;;
19621;SDS011;9958;33.196;-97.114;2023-07-13T05:55:59;4.57;;;3.30;;
19621;SDS011;9958;33.196;-97.114;2023-07-13T05:58:29;5.00;;;2.80;;
19621;SDS011;9958;33.196;-97.114;2023-07-13T06:01:01;5.57;;;2.97;;
19621;SDS011;9958;33.196;-97.114;2023-07-13T06:03:31;4.63;;;2.97;;
19621;SDS011;9958;33.196;-97.114;2023-07-13T06:06:00;5.63;;;3.33;;
19621;SDS011;9958;33.196;-97.114;2023-07-13T06:08:28;6.00;;;3.25;;
19621;SDS011;9958;33.196;-97.114;2023-07-13T06:11:01;6.70;;;2.72;;
19621;SDS011;9958;33.196;-97.114;2023-07-13T06:13:32;8.65;;;3.30;;
19621;SDS011;9958;33.196;-97.114;2023-07-13T06:16:01;5.45;;;3.33;;
19621;SDS011;9958;33.196;-97.114;2023-07-13T06:18:31;7.30;;;3.30;;
19621;SDS011;9958;33.196;-97.114;2023-07-13T06:20:59;4.10;;;3.70;;
19621;SDS011;9958;33.196;-97.114;2023-07-13T06:23:28;3.95;;;2.72;;
19621;SDS011;9958;33.196;-97.114;2023-07-13T06:25:56;5.10;;;2.80;;
19621;SDS011;9958;33.196;-97.114;2023-07-13T06:28:24;4.78;;;2.90;;
19621;SDS011;9958;33.196;-97.114;2023-07-13T06:30:54;4.20;;;2.63;;
19621;SDS011;9958;33.196;-97.114;2023-07-13T06:33:23;3.45;;;2.80;;
19621;SDS011;9958;33.196;-97.114;2023-07-13T06:35:51;4.60;;;2.70;;
19621;SDS011;9958;33.196;-97.114;2023-07-13T06:38:20;3.97;;;2.67;;
19621;SDS011;9958;33.196;-97.114;2023-07-13T06:40:49;5.82;;;2.70;;
19621;SDS011;9958;33.196;-97.114;2023-07-13T06:43:17;4.60;;;2.85;;
19621;SDS011;9958;33.196;-97.114;2023-07-13T06:45:46;4.20;;;3.55;;
19621;SDS011;9958;33.196;-97.114;2023-07-13T06:48:18;3.70;;;2.38;;
19621;SDS011;9958;33.196;-97.114;2023-07-13T06:50:47;3.53;;;2.60;;
19621;SDS011;9958;33.196;-97.114;2023-07-13T06:53:17;3.72;;;2.47;;
19621;SDS011;9958;33.196;-97.114;2023-07-13T06:55:47;5.85;;;2.88;;
19621;SDS011;9958;33.196;-97.114;2023-07-13T06:58:15;6.35;;;2.70;;
19621;SDS011;9958;33.196;-97.114;2023-07-13T07:00:46;6.47;;;2.60;;
19621;SDS011;9958;33.196;-97.114;2023-07-13T07:03:19;5.30;;;2.97;;
19621;SDS011;9958;33.196;-97.114;2023-07-13T07:05:48;6.28;;;2.88;;
19621;SDS011;9958;33.196;-97.114;2023-07-13T07:08:16;4.07;;;3.00;;
19621;SDS011;9958;33.196;-97.114;2023-07-13T07:10:44;3.92;;;2.17;;
19621;SDS011;9958;33.196;-97.114;2023-07-13T07:13:17;4.50;;;2.28;;
19621;SDS011;9958;33.196;-97.114;2023-07-13T07:15:45;6.65;;;2.50;;
19621;SDS011;9958;33.196;-97.114;2023-07-13T07:18:13;6.55;;;2.78;;
19621;SDS011;9958;33.196;-97.114;2023-07-13T07:20:43;5.70;;;2.42;;
19621;SDS011;9958;33.196;-97.114;2023-07-13T07:23:11;5.22;;;2.30;;
19621;SDS011;9958;33.196;-97.114;2023-07-13T07:25:40;2.72;;;1.90;;
19621;SDS011;9958;33.196;-97.114;2023-07-13T07:28:10;2.60;;;2.05;;
19621;SDS011;9958;33.196;-97.114;2023-07-13T07:30:41;6.25;;;2.40;;
19621;SDS011;9958;33.196;-97.114;2023-07-13T07:33:09;4.65;;;2.17;;
19621;SDS011;9958;33.196;-97.114;2023-07-13T07:35:38;4.45;;;2.08;;
19621;SDS011;9958;33.196;-97.114;2023-07-13T07:38:08;4.28;;;2.35;;
19621;SDS011;9958;33.196;-97.114;2023-07-13T07:40:36;2.28;;;2.08;;
19621;SDS011;9958;33.196;-97.114;2023-07-13T07:43:05;7.18;;;2.63;;
19621;SDS011;9958;33.196;-97.114;2023-07-13T07:45:34;3.75;;;2.15;;
19621;SDS011;9958;33.196;-97.114;2023-07-13T07:48:03;5.25;;;2.35;;
19621;SDS011;9958;33.196;-97.114;2023-07-13T07:50:32;5.90;;;2.50;;
19621;SDS011;9958;33.196;-97.114;2023-07-13T07:53:00;4.53;;;2.35;;
19621;SDS011;9958;33.196;-97.114;2023-07-13T07:55:30;5.80;;;2.33;;
19621;SDS011;9958;33.196;-97.114;2023-07-13T07:58:01;7.10;;;2.38;;
19621;SDS011;9958;33.196;-97.114;2023-07-13T08:00:30;6.15;;;2.00;;
19621;SDS011;9958;33.196;-97.114;2023-07-13T08:02:58;4.00;;;2.33;;
19621;SDS011;9958;33.196;-97.114;2023-07-13T08:05:27;4.75;;;2.38;;
19621;SDS011;9958;33.196;-97.114;2023-07-13T08:07:55;6.15;;;2.30;;
19621;SDS011;9958;33.196;-97.114;2023-07-13T08:10:23;8.02;;;2.30;;
19621;SDS011;9958;33.196;-97.114;2023-07-13T08:12:53;6.80;;;2.05;;
19621;SDS011;9958;33.196;-97.114;2023-07-13T08:15:22;4.38;;;2.25;;
19621;SDS011;9958;33.196;-97.114;2023-07-13T08:17:50;4.20;;;2.10;;
19621;SDS011;9958;33.196;-97.114;2023-07-13T08:20:18;3.92;;;1.85;;
19621;SDS011;9958;33.196;-97.114;2023-07-13T08:22:46;6.07;;;2.30;;
19621;SDS011;9958;33.196;-97.114;2023-07-13T08:25:15;4.30;;;2.20;;
19621;SDS011;9958;33.196;-97.114;2023-07-13T08:27:43;8.15;;;2.05;;
19621;SDS011;9958;33.196;-97.114;2023-07-13T08:30:13;4.10;;;2.00;;
19621;SDS011;9958;33.196;-97.114;2023-07-13T08:32:42;5.03;;;2.20;;
19621;SDS011;9958;33.196;-97.114;2023-07-13T08:35:10;7.13;;;2.30;;
19621;SDS011;9958;33.196;-97.114;2023-07-13T08:37:39;6.13;;;1.88;;
19621;SDS011;9958;33.196;-97.114;2023-07-13T08:40:07;5.80;;;2.53;;
19621;SDS011;9958;33.196;-97.114;2023-07-13T08:42:38;5.80;;;2.35;;
19621;SDS011;9958;33.196;-97.114;2023-07-13T08:45:17;5.07;;;2.05;;
19621;SDS011;9958;33.196;-97.114;2023-07-13T08:47:49;4.65;;;2.33;;
19621;SDS011;9958;33.196;-97.114;2023-07-13T08:50:22;4.57;;;2.03;;
19621;SDS011;9958;33.196;-97.114;2023-07-13T08:52:54;4.00;;;2.00;;
19621;SDS011;9958;33.196;-97.114;2023-07-13T08:55:25;5.55;;;2.05;;
19621;SDS011;9958;33.196;-97.114;2023-07-13T08:58:02;5.03;;;2.08;;
19621;SDS011;9958;33.196;-97.114;2023-07-13T09:00:40;5.00;;;2.15;;
19621;SDS011;9958;33.196;-97.114;2023-07-13T09:03:20;6.05;;;1.83;;
19621;SDS011;9958;33.196;-97.114;2023-07-13T09:05:52;9.70;;;2.35;;
19621;SDS011;9958;33.196;-97.114;2023-07-13T09:08:31;6.60;;;2.25;;
19621;SDS011;9958;33.196;-97.114;2023-07-13T09:11:10;6.53;;;2.08;;
19621;SDS011;9958;33.196;-97.114;2023-07-13T09:13:47;6.25;;;2.10;;
19621;SDS011;9958;33.196;-97.114;2023-07-13T09:16:25;5.90;;;2.47;;
19621;SDS011;9958;33.196;-97.114;2023-07-13T09:18:54;3.63;;;1.90;;
19621;SDS011;9958;33.196;-97.114;2023-07-13T09:21:28;4.18;;;2.03;;
19621;SDS011;9958;33.196;-97.114;2023-07-13T09:24:01;4.35;;;1.77;;
19621;SDS011;9958;33.196;-97.114;2023-07-13T09:26:50;5.15;;;2.00;;
19621;SDS011;9958;33.196;-97.114;2023-07-13T09:29:20;4.13;;;1.60;;
19621;SDS011;9958;33.196;-97.114;2023-07-13T09:31:56;3.88;;;1.90;;
19621;SDS011;9958;33.196;-97.114;2023-07-13T09:34:28;4.60;;;2.03;;
19621;SDS011;9958;33.196;-97.114;2023-07-13T09:36:57;5.78;;;1.80;;
19621;SDS011;9958;33.196;-97.114;2023-07-13T09:39:26;3.03;;;1.75;;
19621;SDS011;9958;33.196;-97.114;2023-07-13T09:42:00;6.25;;;1.58;;
19621;SDS011;9958;33.196;-97.114;2023-07-13T09:44:34;4.20;;;2.00;;
19621;SDS011;9958;33.196;-97.114;2023-07-13T09:47:13;3.92;;;1.85;;
19621;SDS011;9958;33.196;-97.114;2023-07-13T09:49:44;3.72;;;1.63;;
19621;SDS011;9958;33.196;-97.114;2023-07-13T09:52:14;8.07;;;1.88;;
19621;SDS011;9958;33.196;-97.114;2023-07-13T09:54:44;10.30;;;2.47;;
19621;SDS011;9958;33.196;-97.114;2023-07-13T09:57:15;3.75;;;1.65;;
19621;SDS011;9958;33.196;-97.114;2023-07-13T09:59:46;3.25;;;1.95;;
19621;SDS011;9958;33.196;-97.114;2023-07-13T10:02:27;7.25;;;2.10;;
19621;SDS011;9958;33.196;-97.114;2023-07-13T10:04:59;3.80;;;2.03;;
19621;SDS011;9958;33.196;-97.114;2023-07-13T10:07:28;5.32;;;2.03;;
19621;SDS011;9958;33.196;-97.114;2023-07-13T10:09:58;7.45;;;1.83;;
19621;SDS011;9958;33.196;-97.114;2023-07-13T10:12:29;4.78;;;2.05;;
19621;SDS011;9958;33.196;-97.114;2023-07-13T10:15:04;3.08;;;1.70;;
19621;SDS011;9958;33.196;-97.114;2023-07-13T10:17:43;6.55;;;1.80;;
19621;SDS011;9958;33.196;-97.114;2023-07-13T10:20:12;3.63;;;1.70;;
19621;SDS011;9958;33.196;-97.114;2023-07-13T10:22:42;5.63;;;2.50;;
19621;SDS011;9958;33.196;-97.114;2023-07-13T10:25:17;6.00;;;1.83;;
19621;SDS011;9958;33.196;-97.114;2023-07-13T10:27:47;5.10;;;1.60;;
19621;SDS011;9958;33.196;-97.114;2023-07-13T10:30:19;3.60;;;1.95;;
19621;SDS011;9958;33.196;-97.114;2023-07-13T10:32:52;7.95;;;2.08;;
19621;SDS011;9958;33.196;-97.114;2023-07-13T10:35:21;2.58;;;1.88;;
19621;SDS011;9958;33.196;-97.114;2023-07-13T10:37:51;4.78;;;2.17;;
19621;SDS011;9958;33.196;-97.114;2023-07-13T10:40:23;3.42;;;1.92;;
19621;SDS011;9958;33.196;-97.114;2023-07-13T10:42:56;4.38;;;2.20;;
19621;SDS011;9958;33.196;-97.114;2023-07-13T10:45:28;3.03;;;2.20;;
19621;SDS011;9958;33.196;-97.114;2023-07-13T10:48:02;3.10;;;1.60;;
19621;SDS011;9958;33.196;-97.114;2023-07-13T10:50:33;6.70;;;1.67;;
19621;SDS011;9958;33.196;-97.114;2023-07-13T10:53:03;3.42;;;1.98;;
19621;SDS011;9958;33.196;-97.114;2023-07-13T10:55:55;4.70;;;1.50;;
19621;SDS011;9958;33.196;-97.114;2023-07-13T10:58:32;4.05;;;2.10;;
19621;SDS011;9958;33.196;-97.114;2023-07-13T11:01:07;8.05;;;2.08;;
19621;SDS011;9958;33.196;-97.114;2023-07-13T11:03:49;7.10;;;2.00;;
19621;SDS011;9958;33.196;-97.114;2023-07-13T11:06:29;4.35;;;1.73;;
19621;SDS011;9958;33.196;-97.114;2023-07-13T11:09:17;2.03;;;1.80;;
19621;SDS011;9958;33.196;-97.114;2023-07-13T11:11:58;4.15;;;1.88;;
19621;SDS011;9958;33.196;-97.114;2023-07-13T11:14:30;3.38;;;1.70;;
19621;SDS011;9958;33.196;-97.114;2023-07-13T11:20:19;5.75;;;1.90;;
19621;SDS011;9958;33.196;-97.114;2023-07-13T11:23:15;3.67;;;1.83;;
19621;SDS011;9958;33.196;-97.114;2023-07-13T11:26:03;7.20;;;2.20;;
19621;SDS011;9958;33.196;-97.114;2023-07-13T11:28:31;3.47;;;1.48;;
19621;SDS011;9958;33.196;-97.114;2023-07-13T11:31:12;3.10;;;2.08;;
19621;SDS011;9958;33.196;-97.114;2023-07-13T11:33:49;9.02;;;2.00;;
19621;SDS011;9958;33.196;-97.114;2023-07-13T11:36:21;7.72;;;1.80;;
19621;SDS011;9958;33.196;-97.114;2023-07-13T11:38:55;6.63;;;2.22;;
19621;SDS011;9958;33.196;-97.114;2023-07-13T11:41:27;5.03;;;1.80;;
19621;SDS011;9958;33.196;-97.114;2023-07-13T11:44:02;2.67;;;1.70;;
19621;SDS011;9958;33.196;-97.114;2023-07-13T11:46:38;3.38;;;1.92;;
19621;SDS011;9958;33.196;-97.114;2023-07-13T11:49:12;6.05;;;2.67;;
19621;SDS011;9958;33.196;-97.114;2023-07-13T11:51:46;4.53;;;2.33;;
19621;SDS011;9958;33.196;-97.114;2023-07-13T11:54:22;3.25;;;1.85;;
19621;SDS011;9958;33.196;-97.114;2023-07-13T11:56:53;3.70;;;2.05;;
19621;SDS011;9958;33.196;-97.114;2023-07-13T11:59:26;5.57;;;2.10;;
19621;SDS011;9958;33.196;-97.114;2023-07-13T12:01:54;5.07;;;2.22;;
19621;SDS011;9958;33.196;-97.114;2023-07-13T12:04:26;4.15;;;1.80;;
19621;SDS011;9958;33.196;-97.114;2023-07-13T12:07:03;5.38;;;2.00;;
19621;SDS011;9958;33.196;-97.114;2023-07-13T12:09:34;4.70;;;2.08;;
19621;SDS011;9958;33.196;-97.114;2023-07-13T12:12:03;4.35;;;2.33;;
19621;SDS011;9958;33.196;-97.114;2023-07-13T12:14:37;3.78;;;2.10;;
19621;SDS011;9958;33.196;-97.114;2023-07-13T12:17:08;4.65;;;2.17;;
19621;SDS011;9958;33.196;-97.114;2023-07-13T12:19:40;3.50;;;2.15;;
19621;SDS011;9958;33.196;-97.114;2023-07-13T12:22:11;4.15;;;2.25;;
19621;SDS011;9958;33.196;-97.114;2023-07-13T12:24:41;5.05;;;2.00;;
19621;SDS011;9958;33.196;-97.114;2023-07-13T12:27:16;5.18;;;2.08;;
19621;SDS011;9958;33.196;-97.114;2023-07-13T12:29:51;4.05;;;1.73;;
19621;SDS011;9958;33.196;-97.114;2023-07-13T12:32:25;3.72;;;1.83;;
19621;SDS011;9958;33.196;-97.114;2023-07-13T12:34:56;4.03;;;1.75;;
19621;SDS011;9958;33.196;-97.114;2023-07-13T12:37:33;2.97;;;1.90;;
19621;SDS011;9958;33.196;-97.114;2023-07-13T12:40:02;4.80;;;2.10;;
19621;SDS011;9958;33.196;-97.114;2023-07-13T12:42:34;3.53;;;1.77;;
19621;SDS011;9958;33.196;-97.114;2023-07-13T12:45:11;3.67;;;2.03;;
19621;SDS011;9958;33.196;-97.114;2023-07-13T12:47:47;5.55;;;1.88;;
19621;SDS011;9958;33.196;-97.114;2023-07-13T12:50:17;4.93;;;2.20;;
19621;SDS011;9958;33.196;-97.114;2023-07-13T12:52:51;4.30;;;2.00;;
19621;SDS011;9958;33.196;-97.114;2023-07-13T12:55:29;6.15;;;2.85;;
19621;SDS011;9958;33.196;-97.114;2023-07-13T12:57:59;7.63;;;2.17;;
19621;SDS011;9958;33.196;-97.114;2023-07-13T13:00:31;4.35;;;1.52;;
19621;SDS011;9958;33.196;-97.114;2023-07-13T13:03:02;8.48;;;2.38;;
19621;SDS011;9958;33.196;-97.114;2023-07-13T13:05:33;1.98;;;1.65;;
19621;SDS011;9958;33.196;-97.114;2023-07-13T13:08:04;5.78;;;1.90;;
19621;SDS011;9958;33.196;-97.114;2023-07-13T13:10:35;7.75;;;2.30;;
19621;SDS011;9958;33.196;-97.114;2023-07-13T13:13:03;3.50;;;2.10;;
19621;SDS011;9958;33.196;-97.114;2023-07-13T13:15:32;6.93;;;2.10;;
19621;SDS011;9958;33.196;-97.114;2023-07-13T13:18:01;6.25;;;1.92;;
19621;SDS011;9958;33.196;-97.114;2023-07-13T13:20:30;6.03;;;2.45;;
19621;SDS011;9958;33.196;-97.114;2023-07-13T13:22:58;6.20;;;2.35;;
19621;SDS011;9958;33.196;-97.114;2023-07-13T13:25:28;6.18;;;2.40;;
19621;SDS011;9958;33.196;-97.114;2023-07-13T13:27:57;3.90;;;2.25;;
19621;SDS011;9958;33.196;-97.114;2023-07-13T13:30:25;4.20;;;1.92;;
19621;SDS011;9958;33.196;-97.114;2023-07-13T13:32:53;6.40;;;2.13;;
19621;SDS011;9958;33.196;-97.114;2023-07-13T13:35:21;8.63;;;2.08;;
19621;SDS011;9958;33.196;-97.114;2023-07-13T13:37:52;6.05;;;2.30;;
19621;SDS011;9958;33.196;-97.114;2023-07-13T13:40:21;7.20;;;2.10;;
19621;SDS011;9958;33.196;-97.114;2023-07-13T13:42:51;5.85;;;2.20;;
19621;SDS011;9958;33.196;-97.114;2023-07-13T13:45:21;7.43;;;2.33;;
19621;SDS011;9958;33.196;-97.114;2023-07-13T13:47:50;5.03;;;2.22;;
19621;SDS011;9958;33.196;-97.114;2023-07-13T13:50:19;6.38;;;1.88;;
19621;SDS011;9958;33.196;-97.114;2023-07-13T13:52:49;4.10;;;2.13;;
19621;SDS011;9958;33.196;-97.114;2023-07-13T13:55:18;7.18;;;2.40;;
19621;SDS011;9958;33.196;-97.114;2023-07-13T13:57:51;4.55;;;2.60;;
19621;SDS011;9958;33.196;-97.114;2023-07-13T14:00:20;5.07;;;2.22;;
19621;SDS011;9958;33.196;-97.114;2023-07-13T14:02:50;6.53;;;2.50;;
19621;SDS011;9958;33.196;-97.114;2023-07-13T14:05:22;8.18;;;2.67;;
19621;SDS011;9958;33.196;-97.114;2023-07-13T14:07:51;5.22;;;2.35;;
19621;SDS011;9958;33.196;-97.114;2023-07-13T14:10:20;5.30;;;2.20;;
19621;SDS011;9958;33.196;-97.114;2023-07-13T14:12:52;5.10;;;2.35;;
19621;SDS011;9958;33.196;-97.114;2023-07-13T14:15:23;4.55;;;1.98;;
19621;SDS011;9958;33.196;-97.114;2023-07-13T14:17:53;6.55;;;2.25;;
19621;SDS011;9958;33.196;-97.114;2023-07-13T14:20:23;4.07;;;2.08;;
19621;SDS011;9958;33.196;-97.114;2023-07-13T14:22:52;3.67;;;2.10;;
19621;SDS011;9958;33.196;-97.114;2023-07-13T14:25:21;4.68;;;2.10;;
19621;SDS011;9958;33.196;-97.114;2023-07-13T14:27:51;7.38;;;2.85;;
19621;SDS011;9958;33.196;-97.114;2023-07-13T14:30:24;5.65;;;2.45;;
19621;SDS011;9958;33.196;-97.114;2023-07-13T14:32:53;6.00;;;2.38;;
19621;SDS011;9958;33.196;-97.114;2023-07-13T14:35:21;4.05;;;2.40;;
19621;SDS011;9958;33.196;-97.114;2023-07-13T14:37:50;6.63;;;2.60;;
19621;SDS011;9958;33.196;-97.114;2023-07-13T14:40:21;5.40;;;2.58;;
19621;SDS011;9958;33.196;-97.114;2023-07-13T14:42:54;10.15;;;2.70;;
19621;SDS011;9958;33.196;-97.114;2023-07-13T14:45:23;9.40;;;2.70;;
19621;SDS011;9958;33.196;-97.114;2023-07-13T14:47:52;5.75;;;2.30;;
19621;SDS011;9958;33.196;-97.114;2023-07-13T14:50:22;6.35;;;2.35;;
19621;SDS011;9958;33.196;-97.114;2023-07-13T14:52:55;6.22;;;2.58;;
19621;SDS011;9958;33.196;-97.114;2023-07-13T14:55:24;5.53;;;2.40;;
19621;SDS011;9958;33.196;-97.114;2023-07-13T14:57:54;9.57;;;2.50;;